Flight Track Log - Related Links

Times and Time Zones

All times are in EDT time to prevent confusion due to time zone crossing. See the PDT4373 flight status page for this flight to view local times or setup timezone preferences in your user account.

Time Position Orientation Groundspeed Altitude Reporting Facility
EDT Latitude Longitude Course Direction KTS MPH feet Rate Location/Type
Fri 11:49:00 AM 41.9591 -75.8981 154° Southeast  Level Estimated
Fri 11:50:00 AM 41.8968 -75.8779 160° South  Level Estimated
Fri 11:51:00 AM 41.8345 -75.8577 159° South  Level Estimated
Fri 11:52:00 AM 41.7709 -75.8466 173° South  Level FlightAware Approximate
Fri 11:53:00 AM 41.7086 -75.8262 153° Southeast  Level Estimated
Fri 11:54:00 AM 41.6463 -75.8058 161° South  Level Estimated
Fri 11:55:00 AM 41.5839 -75.7856 166° South  Level FlightAware Approximate
Fri 11:56:00 AM 41.5216 -75.7654 166° South  Level FlightAware Approximate
Fri 11:57:00 AM 41.4593 -75.7451 162° South  Level Estimated
Fri 11:58:00 AM 41.3978 -75.7210 164° South  Level FlightAware Approximate
Fri 11:59:00 AM 41.3362 -75.6970 164° South  Level FlightAware Approximate
Fri 12:00:00 PM 41.2747 -75.6730 164° South  Level FlightAware Approximate
Fri 12:01:00 PM 41.2131 -75.6491 164° South  Level FlightAware Approximate
Fri 12:02:00 PM 41.1507 -75.6297 163° South  Level Estimated
Fri 12:03:00 PM 41.0895 -75.6042 163° South  Level FlightAware Approximate
Fri 12:04:00 PM 41.0283 -75.5788 163° South  Level FlightAware Approximate
Fri 12:05:00 PM 40.9671 -75.5534 163° South  Level FlightAware Approximate
Fri 12:06:00 PM 40.9044 -75.5352 190° South  Level Estimated
Fri 12:07:00 PM 40.8404 -75.5296 176° South  Level FlightAware Approximate
Fri 12:08:00 PM 40.7764 -75.5240 176° South  Level FlightAware Approximate
Fri 12:09:00 PM 40.7124 -75.5185 176° South  Level FlightAware Approximate
Fri 12:10:00 PM 40.6503 -75.4977 187° South  Level Estimated
Fri 12:11:00 PM 40.5881 -75.4769 190° South  Level Estimated
Fri 12:12:00 PM 40.5248 -75.4907 189° South  Level FlightAware Approximate
Fri 12:13:00 PM 40.4616 -75.5044 189° South  Level FlightAware Approximate
Fri 12:14:00 PM 40.4009 -75.4770 143° Southeast  Level Estimated
Fri 12:14:09 PM 40.6167 -75.6000 159° South 250 288 7,000  Level Philadelphia TRACON
Fri 12:14:57 PM 40.5667 -75.5833 166° South 248 285 6,900 -56 Descending Philadelphia TRACON
Fri 12:15:00 PM 40.3402 -75.4497 143° Southeast  Level Estimated
Fri 12:15:57 PM 40.5000 -75.5833 180° South 234 269 6,900  Level Philadelphia TRACON
Fri 12:16:00 PM 40.2795 -75.4225 143° Southeast  Level Estimated
Fri 12:16:57 PM 40.4333 -75.5833 180° South 231 266 7,000  Level Philadelphia TRACON
Fri 12:17:00 PM 40.2189 -75.3953 143° Southeast  Level Estimated
Fri 12:17:52 PM 40.3667 -75.5667 169° South 230 265 7,000  Level Philadelphia TRACON
Fri 12:18:00 PM 40.1582 -75.3681 180° South  Level Estimated
Fri 12:18:52 PM 40.3000 -75.5667 180° South 231 266 7,000  Level Philadelphia TRACON
Fri 12:19:00 PM 40.0975 -75.3410 159° South  Level Estimated
Fri 12:19:52 PM 40.2500 -75.5667 180° South 230 265 7,000  Level Philadelphia TRACON
Fri 12:20:52 PM 40.1833 -75.5500 169° South 229 264 7,000  Level Philadelphia TRACON
Fri 12:21:52 PM 40.1167 -75.5500 180° South 229 264 7,000  Level Philadelphia TRACON
Fri 12:22:58 PM 40.0500 -75.5333 169° South 228 262 7,000  Level Philadelphia TRACON
Fri 12:23:58 PM 40.0167 -75.4833 131° Southeast 199 229 7,000 -263 Level Philadelphia TRACON
Fri 12:24:52 PM 40.0333 -75.4333 66° East 182 209 6,500 -526 Descending Philadelphia TRACON
Fri 12:25:52 PM 39.9833 -75.4000 153° Southeast 208 239 6,000 -250 Descending Philadelphia TRACON
Fri 12:26:52 PM 39.9333 -75.4333 207° Southwest 230 265 6,000  Level Philadelphia TRACON
Fri 12:27:58 PM 39.9167 -75.5333 258° West 237 273 6,000 -273 Level Philadelphia TRACON
Fri 12:29:04 PM 39.8833 -75.6167 242° Southwest 236 272 5,400 -700 Descending Philadelphia TRACON
Fri 12:29:58 PM 39.8667 -75.6833 252° West 231 266 4,600 -737 Descending Philadelphia TRACON
Fri 12:30:58 PM 39.8167 -75.7167 207° Southwest 204 235 4,000 -283 Descending Philadelphia TRACON
Fri 12:32:05 PM 39.7833 -75.6667 131° Southeast 163 188 4,000 -316 Level Philadelphia TRACON
Fri 12:33:11 PM 39.8000 -75.6167 67° East 153 176 3,300 -526 Descending Philadelphia TRACON
Fri 12:33:59 PM 39.8000 -75.5833 90° East 129 148 3,000 -158 Descending Philadelphia TRACON
Fri 12:35:05 PM 39.8167 -75.5333 67° East 128 147 3,000  Level Philadelphia TRACON
Fri 12:36:05 PM 39.8167 -75.4833 90° East 129 148 3,000 -250 Level Philadelphia TRACON
Fri 12:37:05 PM 39.8333 -75.4333 67° East 124 143 2,500 -550 Descending Philadelphia TRACON
Fri 12:38:05 PM 39.8333 -75.4000 90° East 119 137 1,900 -600 Descending Philadelphia TRACON
Fri 12:39:05 PM 39.8500 -75.3500 67° East 113 130 1,300 -600 Descending Philadelphia TRACON
Fri 12:40:05 PM 39.8500 -75.3167 90° East 119 137 700 -600 Descending Philadelphia TRACON

Login

Don't have an account? Register now (free) for customized features, flight alerts, and more!